TimeCST,TemperatureF,Dew PointF,Humidity,Sea Level PressureIn,VisibilityMPH,Wind Direction,Wind SpeedMPH,Gust SpeedMPH,PrecipitationIn,Events,Conditions,WindDirDegrees,DateUTC
12:54 AM,21.9,10.0,60,30.33,10.0,NNW,8.1,-,N/A,,Clear,330,2013-02-20 06:54:00
1:54 AM,21.0,8.1,57,30.34,10.0,NNW,8.1,-,N/A,,Clear,330,2013-02-20 07:54:00
2:54 AM,19.0,9.0,65,30.34,10.0,NNW,5.8,-,N/A,,Clear,340,2013-02-20 08:54:00
3:54 AM,19.0,8.1,62,30.32,10.0,North,5.8,-,N/A,,Clear,350,2013-02-20 09:54:00
4:54 AM,18.0,8.1,65,30.35,10.0,North,5.8,-,N/A,,Clear,350,2013-02-20 10:54:00
5:54 AM,17.1,7.0,65,30.37,10.0,North,6.9,-,N/A,,Clear,360,2013-02-20 11:54:00
6:54 AM,16.0,7.0,68,30.38,10.0,North,11.5,-,N/A,,Clear,360,2013-02-20 12:54:00
7:54 AM,17.1,9.0,71,30.41,10.0,North,8.1,-,N/A,,Clear,360,2013-02-20 13:54:00
9:54 AM,19.9,10.0,65,30.43,10.0,NNW,3.5,-,N/A,,Clear,330,2013-02-20 15:54:00
10:54 AM,21.9,9.0,58,30.44,10.0,Calm,Calm,-,N/A,,Clear,0,2013-02-20 16:54:00
11:54 AM,21.9,8.1,55,30.44,10.0,Calm,Calm,-,N/A,,Clear,0,2013-02-20 17:54:00
12:54 PM,24.1,10.9,57,30.40,10.0,ENE,6.9,-,N/A,,Clear,60,2013-02-20 18:54:00
1:54 PM,24.1,10.0,55,30.38,10.0,East,3.5,-,N/A,,Clear,80,2013-02-20 19:54:00
2:54 PM,25.0,10.0,53,30.37,10.0,NNE,5.8,-,N/A,,Clear,30,2013-02-20 20:54:00
3:54 PM,25.0,10.9,55,30.35,10.0,NE,8.1,-,N/A,,Clear,50,2013-02-20 21:54:00
4:54 PM,24.1,10.9,57,30.33,10.0,NE,10.4,-,N/A,,Clear,40,2013-02-20 22:54:00
5:54 PM,24.1,10.9,57,30.33,10.0,NE,9.2,-,N/A,,Clear,50,2013-02-20 23:54:00
6:54 PM,23.0,12.0,63,30.33,10.0,ENE,6.9,-,N/A,,Overcast,70,2013-02-21 00:54:00
7:54 PM,23.0,12.9,65,30.35,10.0,East,4.6,-,N/A,,Clear,90,2013-02-21 01:54:00
9:54 PM,21.0,12.9,71,30.34,10.0,ENE,5.8,-,N/A,,Partly Cloudy,70,2013-02-21 03:54:00
10:54 PM,19.9,12.0,71,30.35,10.0,NE,4.6,-,N/A,,Mostly Cloudy,50,2013-02-21 04:54:00
11:54 PM,19.9,12.9,74,30.34,10.0,ENE,4.6,-,N/A,,Scattered Clouds,60,2013-02-21 05:54:00